sensor_id;sensor_type;location;lat;lon;timestamp;pressure;altitude;pressure_sealevel;temperature;humidity
31225;BME280;17847;31.524;74.366;2023-10-09T00:00:35;98215.13;;;26.72;nan
31225;BME280;17847;31.524;74.366;2023-10-09T00:03:20;98225.00;;;26.68;nan
31225;BME280;17847;31.524;74.366;2023-10-09T00:05:52;98222.28;;;26.68;nan
31225;BME280;17847;31.524;74.366;2023-10-09T00:08:22;98232.69;;;26.53;nan
31225;BME280;17847;31.524;74.366;2023-10-09T00:11:01;98234.84;;;26.64;nan
31225;BME280;17847;31.524;74.366;2023-10-09T00:13:47;98236.22;;;26.75;nan
31225;BME280;17847;31.524;74.366;2023-10-09T00:16:22;98239.34;;;26.69;nan
31225;BME280;17847;31.524;74.366;2023-10-09T00:19:06;98244.88;;;26.55;nan
31225;BME280;17847;31.524;74.366;2023-10-09T00:22:02;98246.84;;;26.63;nan
31225;BME280;17847;31.524;74.366;2023-10-09T00:24:39;98248.38;;;26.78;nan
31225;BME280;17847;31.524;74.366;2023-10-09T00:27:14;98251.88;;;26.92;nan
31225;BME280;17847;31.524;74.366;2023-10-09T00:29:44;98256.63;;;26.87;nan
31225;BME280;17847;31.524;74.366;2023-10-09T00:32:15;98253.50;;;26.79;nan
31225;BME280;17847;31.524;74.366;2023-10-09T00:34:56;98255.75;;;26.77;nan
31225;BME280;17847;31.524;74.366;2023-10-09T00:37:42;98262.41;;;26.71;nan
31225;BME280;17847;31.524;74.366;2023-10-09T00:40:11;98264.50;;;26.74;nan
31225;BME280;17847;31.524;74.366;2023-10-09T00:42:41;98266.75;;;26.72;nan
31225;BME280;17847;31.524;74.366;2023-10-09T00:45:10;98266.59;;;26.55;nan
31225;BME280;17847;31.524;74.366;2023-10-09T00:47:45;98265.00;;;26.76;nan
31225;BME280;17847;31.524;74.366;2023-10-09T00:50:16;98270.53;;;26.49;nan
31225;BME280;17847;31.524;74.366;2023-10-09T00:52:49;98269.69;;;26.62;nan
31225;BME280;17847;31.524;74.366;2023-10-09T00:55:32;98272.25;;;26.45;nan
31225;BME280;17847;31.524;74.366;2023-10-09T00:58:09;98274.28;;;26.40;nan
31225;BME280;17847;31.524;74.366;2023-10-09T01:00:43;98264.06;;;26.23;nan
31225;BME280;17847;31.524;74.366;2023-10-09T01:03:17;98267.38;;;26.56;nan
31225;BME280;17847;31.524;74.366;2023-10-09T01:05:55;98269.88;;;26.66;nan
31225;BME280;17847;31.524;74.366;2023-10-09T01:08:39;98275.06;;;26.76;nan
31225;BME280;17847;31.524;74.366;2023-10-09T01:11:12;98281.03;;;26.64;nan
31225;BME280;17847;31.524;74.366;2023-10-09T01:13:50;98285.84;;;26.45;nan
31225;BME280;17847;31.524;74.366;2023-10-09T01:16:21;98293.25;;;26.53;nan
31225;BME280;17847;31.524;74.366;2023-10-09T01:18:55;98296.22;;;26.65;nan
31225;BME280;17847;31.524;74.366;2023-10-09T01:21:41;98298.22;;;26.73;nan
31225;BME280;17847;31.524;74.366;2023-10-09T01:24:11;98298.34;;;26.68;nan
31225;BME280;17847;31.524;74.366;2023-10-09T01:26:41;98304.84;;;26.45;nan
31225;BME280;17847;31.524;74.366;2023-10-09T01:29:19;98307.28;;;26.69;nan
31225;BME280;17847;31.524;74.366;2023-10-09T01:31:51;98314.03;;;26.85;nan
31225;BME280;17847;31.524;74.366;2023-10-09T01:34:25;98314.72;;;26.91;nan
31225;BME280;17847;31.524;74.366;2023-10-09T01:37:08;98313.81;;;26.81;nan
31225;BME280;17847;31.524;74.366;2023-10-09T01:39:59;98316.31;;;26.92;nan
31225;BME280;17847;31.524;74.366;2023-10-09T01:42:48;98325.50;;;27.04;nan
31225;BME280;17847;31.524;74.366;2023-10-09T01:45:17;98331.03;;;27.13;nan
31225;BME280;17847;31.524;74.366;2023-10-09T01:47:47;98324.84;;;26.99;nan
31225;BME280;17847;31.524;74.366;2023-10-09T01:50:26;98331.34;;;27.11;nan
31225;BME280;17847;31.524;74.366;2023-10-09T01:53:00;98340.19;;;27.17;nan
31225;BME280;17847;31.524;74.366;2023-10-09T01:55:34;98339.44;;;27.25;nan
31225;BME280;17847;31.524;74.366;2023-10-09T01:58:08;98345.28;;;27.18;nan
31225;BME280;17847;31.524;74.366;2023-10-09T02:00:45;98344.00;;;27.16;nan
31225;BME280;17847;31.524;74.366;2023-10-09T02:03:19;98347.72;;;27.20;nan
31225;BME280;17847;31.524;74.366;2023-10-09T02:05:53;98344.25;;;27.28;nan
31225;BME280;17847;31.524;74.366;2023-10-09T02:08:28;98355.00;;;27.11;nan
31225;BME280;17847;31.524;74.366;2023-10-09T02:11:04;98362.97;;;27.30;nan
31225;BME280;17847;31.524;74.366;2023-10-09T02:13:36;98360.88;;;27.49;nan
31225;BME280;17847;31.524;74.366;2023-10-09T02:16:11;98358.75;;;27.68;nan
31225;BME280;17847;31.524;74.366;2023-10-09T02:18:44;98361.56;;;27.54;nan
31225;BME280;17847;31.524;74.366;2023-10-09T02:21:25;98367.25;;;27.75;nan
31225;BME280;17847;31.524;74.366;2023-10-09T02:24:09;98373.06;;;27.82;nan
31225;BME280;17847;31.524;74.366;2023-10-09T02:26:38;98381.41;;;27.86;nan
31225;BME280;17847;31.524;74.366;2023-10-09T02:29:07;98380.66;;;27.63;nan
31225;BME280;17847;31.524;74.366;2023-10-09T02:31:42;98379.47;;;27.78;nan
31225;BME280;17847;31.524;74.366;2023-10-09T02:34:20;98385.16;;;27.98;nan
31225;BME280;17847;31.524;74.366;2023-10-09T02:36:54;98387.53;;;28.22;nan
31225;BME280;17847;31.524;74.366;2023-10-09T02:39:33;98382.94;;;28.31;nan
31225;BME280;17847;31.524;74.366;2023-10-09T02:42:17;98388.56;;;28.43;nan
31225;BME280;17847;31.524;74.366;2023-10-09T02:44:52;98395.78;;;28.48;nan
31225;BME280;17847;31.524;74.366;2023-10-09T02:47:24;98399.47;;;28.52;nan
31225;BME280;17847;31.524;74.366;2023-10-09T02:49:58;98400.31;;;28.70;nan
31225;BME280;17847;31.524;74.366;2023-10-09T02:52:35;98404.19;;;28.77;nan
31225;BME280;17847;31.524;74.366;2023-10-09T02:55:09;98405.59;;;28.66;nan
31225;BME280;17847;31.524;74.366;2023-10-09T02:57:55;98412.00;;;28.62;nan
31225;BME280;17847;31.524;74.366;2023-10-09T03:00:37;98416.81;;;28.56;nan
31225;BME280;17847;31.524;74.366;2023-10-09T03:03:06;98417.31;;;28.67;nan
31225;BME280;17847;31.524;74.366;2023-10-09T03:05:35;98417.22;;;28.80;nan
31225;BME280;17847;31.524;74.366;2023-10-09T03:08:11;98414.97;;;28.82;nan
31225;BME280;17847;31.524;74.366;2023-10-09T03:10:45;98418.03;;;28.89;nan
31225;BME280;17847;31.524;74.366;2023-10-09T03:13:14;98422.84;;;29.01;nan
31225;BME280;17847;31.524;74.366;2023-10-09T03:15:48;98416.13;;;29.07;nan
31225;BME280;17847;31.524;74.366;2023-10-09T03:18:20;98427.84;;;29.16;nan
31225;BME280;17847;31.524;74.366;2023-10-09T03:20:50;98424.47;;;29.19;nan
31225;BME280;17847;31.524;74.366;2023-10-09T03:23:19;98426.25;;;29.15;nan
31225;BME280;17847;31.524;74.366;2023-10-09T03:25:48;98431.22;;;29.39;nan
31225;BME280;17847;31.524;74.366;2023-10-09T03:28:18;98432.84;;;29.31;nan
31225;BME280;17847;31.524;74.366;2023-10-09T03:30:48;98437.47;;;29.48;nan
31225;BME280;17847;31.524;74.366;2023-10-09T03:33:19;98440.69;;;29.59;nan
31225;BME280;17847;31.524;74.366;2023-10-09T03:35:49;98443.28;;;29.47;nan
31225;BME280;17847;31.524;74.366;2023-10-09T03:38:18;98444.50;;;29.75;nan
31225;BME280;17847;31.524;74.366;2023-10-09T03:40:47;98453.03;;;29.91;nan
31225;BME280;17847;31.524;74.366;2023-10-09T03:43:17;98450.09;;;30.13;nan
31225;BME280;17847;31.524;74.366;2023-10-09T03:45:47;98452.69;;;30.09;nan
31225;BME280;17847;31.524;74.366;2023-10-09T03:48:23;98456.03;;;30.06;nan
31225;BME280;17847;31.524;74.366;2023-10-09T03:51:03;98451.16;;;30.29;nan
31225;BME280;17847;31.524;74.366;2023-10-09T03:53:41;98456.09;;;29.89;nan
31225;BME280;17847;31.524;74.366;2023-10-09T03:56:11;98463.50;;;30.35;nan
31225;BME280;17847;31.524;74.366;2023-10-09T03:58:42;98466.66;;;30.54;nan
31225;BME280;17847;31.524;74.366;2023-10-09T04:01:17;98467.34;;;30.43;nan
31225;BME280;17847;31.524;74.366;2023-10-09T04:04:06;98467.00;;;30.53;nan
31225;BME280;17847;31.524;74.366;2023-10-09T04:06:39;98464.09;;;30.58;nan
31225;BME280;17847;31.524;74.366;2023-10-09T04:09:10;98474.47;;;30.94;nan
31225;BME280;17847;31.524;74.366;2023-10-09T04:11:53;98475.63;;;30.93;nan
31225;BME280;17847;31.524;74.366;2023-10-09T04:14:41;98474.06;;;31.12;nan
31225;BME280;17847;31.524;74.366;2023-10-09T04:17:18;98478.09;;;31.56;nan
31225;BME280;17847;31.524;74.366;2023-10-09T04:20:04;98479.63;;;31.45;nan
31225;BME280;17847;31.524;74.366;2023-10-09T04:22:49;98470.13;;;31.84;nan
31225;BME280;17847;31.524;74.366;2023-10-09T04:25:28;98472.44;;;31.94;nan
31225;BME280;17847;31.524;74.366;2023-10-09T04:28:00;98473.22;;;32.28;nan
31225;BME280;17847;31.524;74.366;2023-10-09T04:30:48;98479.41;;;32.25;nan
31225;BME280;17847;31.524;74.366;2023-10-09T04:33:24;98473.66;;;32.18;nan
31225;BME280;17847;31.524;74.366;2023-10-09T04:36:11;98481.13;;;32.29;nan
31225;BME280;17847;31.524;74.366;2023-10-09T04:39:01;98485.41;;;32.87;nan
31225;BME280;17847;31.524;74.366;2023-10-09T04:41:33;98484.81;;;32.82;nan
31225;BME280;17847;31.524;74.366;2023-10-09T04:44:21;98486.72;;;33.30;nan
31225;BME280;17847;31.524;74.366;2023-10-09T04:47:04;98496.09;;;33.41;nan
31225;BME280;17847;31.524;74.366;2023-10-09T04:49:42;98487.31;;;33.11;nan
31225;BME280;17847;31.524;74.366;2023-10-09T04:52:19;98486.41;;;32.95;nan
31225;BME280;17847;31.524;74.366;2023-10-09T04:55:00;98494.34;;;33.49;nan
31225;BME280;17847;31.524;74.366;2023-10-09T04:57:44;98490.31;;;33.18;nan
31225;BME280;17847;31.524;74.366;2023-10-09T05:00:18;98482.41;;;33.05;nan
31225;BME280;17847;31.524;74.366;2023-10-09T05:02:59;98486.81;;;33.46;nan
31225;BME280;17847;31.524;74.366;2023-10-09T05:05:36;98484.72;;;33.67;nan
31225;BME280;17847;31.524;74.366;2023-10-09T05:08:16;98488.19;;;33.79;nan
31225;BME280;17847;31.524;74.366;2023-10-09T05:13:31;98487.56;;;33.70;nan
31225;BME280;17847;31.524;74.366;2023-10-09T05:16:12;98486.03;;;34.01;nan
31225;BME280;17847;31.524;74.366;2023-10-09T05:18:49;98487.47;;;34.10;nan
31225;BME280;17847;31.524;74.366;2023-10-09T05:21:39;98488.09;;;33.64;nan
31225;BME280;17847;31.524;74.366;2023-10-09T05:24:12;98486.69;;;33.54;nan
31225;BME280;17847;31.524;74.366;2023-10-09T05:26:45;98488.84;;;34.16;nan
31225;BME280;17847;31.524;74.366;2023-10-09T05:29:23;98485.13;;;34.24;nan
31225;BME280;17847;31.524;74.366;2023-10-09T05:32:04;98489.09;;;34.27;nan
31225;BME280;17847;31.524;74.366;2023-10-09T05:34:44;98486.66;;;34.10;nan
31225;BME280;17847;31.524;74.366;2023-10-09T05:37:31;98489.19;;;34.31;nan
31225;BME280;17847;31.524;74.366;2023-10-09T05:40:12;98483.25;;;34.44;nan
31225;BME280;17847;31.524;74.366;2023-10-09T05:42:46;98482.91;;;34.46;nan
31225;BME280;17847;31.524;74.366;2023-10-09T05:45:27;98479.63;;;34.40;nan
31225;BME280;17847;31.524;74.366;2023-10-09T05:48:19;98478.56;;;34.29;nan
31225;BME280;17847;31.524;74.366;2023-10-09T05:51:08;98470.72;;;33.60;nan
31225;BME280;17847;31.524;74.366;2023-10-09T05:53:39;98464.06;;;33.33;nan
31225;BME280;17847;31.524;74.366;2023-10-09T05:56:15;98456.09;;;33.68;nan
31225;BME280;17847;31.524;74.366;2023-10-09T05:59:23;98453.09;;;34.32;nan
31225;BME280;17847;31.524;74.366;2023-10-09T06:02:11;98462.69;;;34.54;nan
31225;BME280;17847;31.524;74.366;2023-10-09T06:05:15;98457.88;;;34.35;nan
31225;BME280;17847;31.524;74.366;2023-10-09T06:08:03;98445.34;;;34.06;nan
31225;BME280;17847;31.524;74.366;2023-10-09T06:10:41;98440.09;;;33.86;nan
31225;BME280;17847;31.524;74.366;2023-10-09T06:13:10;98438.00;;;33.67;nan
31225;BME280;17847;31.524;74.366;2023-10-09T06:16:00;98437.06;;;33.63;nan
31225;BME280;17847;31.524;74.366;2023-10-09T06:18:48;98439.75;;;33.47;nan
31225;BME280;17847;31.524;74.366;2023-10-09T06:21:34;98435.25;;;33.67;nan
31225;BME280;17847;31.524;74.366;2023-10-09T06:24:10;98436.50;;;33.69;nan
31225;BME280;17847;31.524;74.366;2023-10-09T06:26:47;98441.41;;;33.92;nan
31225;BME280;17847;31.524;74.366;2023-10-09T06:29:29;98431.66;;;33.38;nan
31225;BME280;17847;31.524;74.366;2023-10-09T06:32:19;98425.09;;;33.27;nan
31225;BME280;17847;31.524;74.366;2023-10-09T06:34:51;98416.00;;;33.39;nan
31225;BME280;17847;31.524;74.366;2023-10-09T06:37:22;98404.59;;;33.53;nan
31225;BME280;17847;31.524;74.366;2023-10-09T06:39:56;98407.34;;;33.25;nan
31225;BME280;17847;31.524;74.366;2023-10-09T06:42:28;98402.41;;;33.30;nan
31225;BME280;17847;31.524;74.366;2023-10-09T06:45:12;98396.19;;;33.46;nan
31225;BME280;17847;31.524;74.366;2023-10-09T06:47:49;98403.09;;;33.67;nan
31225;BME280;17847;31.524;74.366;2023-10-09T06:50:25;98389.03;;;33.57;nan
31225;BME280;17847;31.524;74.366;2023-10-09T06:52:55;98383.22;;;33.46;nan
31225;BME280;17847;31.524;74.366;2023-10-09T06:55:52;98385.84;;;33.55;nan
31225;BME280;17847;31.524;74.366;2023-10-09T06:58:30;98383.06;;;33.67;nan
31225;BME280;17847;31.524;74.366;2023-10-09T07:01:10;98383.94;;;33.15;nan
31225;BME280;17847;31.524;74.366;2023-10-09T07:03:57;98371.25;;;32.98;nan
31225;BME280;17847;31.524;74.366;2023-10-09T07:06:39;98373.84;;;32.67;nan
31225;BME280;17847;31.524;74.366;2023-10-09T07:09:08;98368.16;;;32.48;nan
31225;BME280;17847;31.524;74.366;2023-10-09T07:17:21;98354.84;;;32.86;nan
31225;BME280;17847;31.524;74.366;2023-10-09T07:20:02;98348.66;;;32.89;nan
31225;BME280;17847;31.524;74.366;2023-10-09T07:22:49;98349.41;;;32.74;nan
31225;BME280;17847;31.524;74.366;2023-10-09T07:25:22;98334.97;;;32.77;nan
31225;BME280;17847;31.524;74.366;2023-10-09T07:28:11;98329.72;;;32.60;nan
31225;BME280;17847;31.524;74.366;2023-10-09T07:31:05;98333.28;;;32.61;nan
31225;BME280;17847;31.524;74.366;2023-10-09T07:33:38;98336.81;;;32.61;nan
31225;BME280;17847;31.524;74.366;2023-10-09T07:36:28;98334.06;;;32.61;nan
31225;BME280;17847;31.524;74.366;2023-10-09T07:39:06;98329.41;;;32.62;nan
31225;BME280;17847;31.524;74.366;2023-10-09T07:41:42;98318.78;;;32.36;nan
31225;BME280;17847;31.524;74.366;2023-10-09T07:44:25;98308.84;;;32.31;nan
31225;BME280;17847;31.524;74.366;2023-10-09T07:47:05;98303.25;;;32.03;nan
31225;BME280;17847;31.524;74.366;2023-10-09T07:49:48;98296.66;;;32.17;nan
31225;BME280;17847;31.524;74.366;2023-10-09T07:52:22;98292.53;;;31.98;nan
31225;BME280;17847;31.524;74.366;2023-10-09T07:54:54;98290.63;;;32.11;nan
31225;BME280;17847;31.524;74.366;2023-10-09T07:57:30;98282.03;;;32.25;nan
31225;BME280;17847;31.524;74.366;2023-10-09T08:00:07;98277.00;;;32.39;nan
31225;BME280;17847;31.524;74.366;2023-10-09T08:02:41;98278.13;;;32.38;nan
31225;BME280;17847;31.524;74.366;2023-10-09T08:05:13;98275.94;;;32.43;nan
31225;BME280;17847;31.524;74.366;2023-10-09T08:07:50;98269.88;;;32.50;nan
31225;BME280;17847;31.524;74.366;2023-10-09T08:11:02;98273.34;;;32.35;nan
31225;BME280;17847;31.524;74.366;2023-10-09T08:13:49;98262.72;;;32.33;nan
31225;BME280;17847;31.524;74.366;2023-10-09T08:16:25;98259.19;;;32.33;nan
31225;BME280;17847;31.524;74.366;2023-10-09T08:19:05;98256.00;;;32.31;nan
31225;BME280;17847;31.524;74.366;2023-10-09T08:21:53;98246.41;;;32.25;nan
31225;BME280;17847;31.524;74.366;2023-10-09T08:24:40;98244.34;;;32.34;nan
31225;BME280;17847;31.524;74.366;2023-10-09T08:27:18;98241.34;;;32.39;nan
31225;BME280;17847;31.524;74.366;2023-10-09T08:30:02;98226.75;;;32.35;nan
31225;BME280;17847;31.524;74.366;2023-10-09T08:32:48;98224.72;;;32.20;nan
31225;BME280;17847;31.524;74.366;2023-10-09T08:35:34;98220.38;;;32.19;nan
31225;BME280;17847;31.524;74.366;2023-10-09T08:38:20;98213.53;;;32.13;nan
31225;BME280;17847;31.524;74.366;2023-10-09T08:40:53;98208.28;;;32.07;nan
31225;BME280;17847;31.524;74.366;2023-10-09T08:43:27;98203.34;;;32.01;nan
31225;BME280;17847;31.524;74.366;2023-10-09T08:46:00;98193.28;;;32.05;nan
31225;BME280;17847;31.524;74.366;2023-10-09T08:48:31;98193.91;;;32.11;nan
31225;BME280;17847;31.524;74.366;2023-10-09T08:51:01;98186.56;;;32.02;nan
31225;BME280;17847;31.524;74.366;2023-10-09T08:53:35;98177.66;;;32.05;nan
31225;BME280;17847;31.524;74.366;2023-10-09T08:56:13;98176.66;;;32.10;nan
31225;BME280;17847;31.524;74.366;2023-10-09T08:58:59;98176.53;;;32.06;nan
31225;BME280;17847;31.524;74.366;2023-10-09T09:01:30;98175.66;;;31.90;nan
31225;BME280;17847;31.524;74.366;2023-10-09T09:04:03;98161.47;;;31.88;nan
31225;BME280;17847;31.524;74.366;2023-10-09T09:06:37;98164.81;;;31.82;nan
31225;BME280;17847;31.524;74.366;2023-10-09T09:09:11;98161.84;;;31.75;nan
31225;BME280;17847;31.524;74.366;2023-10-09T09:11:44;98155.09;;;31.84;nan
31225;BME280;17847;31.524;74.366;2023-10-09T09:14:17;98153.16;;;31.85;nan
31225;BME280;17847;31.524;74.366;2023-10-09T09:16:51;98148.72;;;31.80;nan
31225;BME280;17847;31.524;74.366;2023-10-09T09:19:31;98147.84;;;31.64;nan
31225;BME280;17847;31.524;74.366;2023-10-09T09:22:01;98148.41;;;31.57;nan
31225;BME280;17847;31.524;74.366;2023-10-09T09:24:57;98150.75;;;31.47;nan
31225;BME280;17847;31.524;74.366;2023-10-09T09:27:45;98139.59;;;31.40;nan
31225;BME280;17847;31.524;74.366;2023-10-09T09:30:41;98145.06;;;31.28;nan
31225;BME280;17847;31.524;74.366;2023-10-09T09:33:21;98148.03;;;31.23;nan
31225;BME280;17847;31.524;74.366;2023-10-09T09:36:03;98148.03;;;31.23;nan
31225;BME280;17847;31.524;74.366;2023-10-09T09:38:35;98149.41;;;31.29;nan
31225;BME280;17847;31.524;74.366;2023-10-09T09:41:11;98138.56;;;31.32;nan
31225;BME280;17847;31.524;74.366;2023-10-09T09:43:42;98144.97;;;31.36;nan
31225;BME280;17847;31.524;74.366;2023-10-09T09:46:14;98151.69;;;31.39;nan
31225;BME280;17847;31.524;74.366;2023-10-09T09:48:44;98146.66;;;31.41;nan
31225;BME280;17847;31.524;74.366;2023-10-09T09:51:16;98135.94;;;31.36;nan
31225;BME280;17847;31.524;74.366;2023-10-09T09:53:46;98140.94;;;31.21;nan
31225;BME280;17847;31.524;74.366;2023-10-09T09:56:20;98142.88;;;31.21;nan
31225;BME280;17847;31.524;74.366;2023-10-09T09:58:53;98138.56;;;31.20;nan
31225;BME280;17847;31.524;74.366;2023-10-09T10:01:29;98125.22;;;31.18;nan
31225;BME280;17847;31.524;74.366;2023-10-09T10:04:12;98115.09;;;31.19;nan
31225;BME280;17847;31.524;74.366;2023-10-09T10:06:49;98117.34;;;31.17;nan
31225;BME280;17847;31.524;74.366;2023-10-09T10:09:37;98122.50;;;31.06;nan
31225;BME280;17847;31.524;74.366;2023-10-09T10:12:10;98128.97;;;31.02;nan
31225;BME280;17847;31.524;74.366;2023-10-09T10:14:56;98126.06;;;30.98;nan
31225;BME280;17847;31.524;74.366;2023-10-09T10:17:27;98128.47;;;31.00;nan
31225;BME280;17847;31.524;74.366;2023-10-09T10:22:43;98114.78;;;30.88;nan
31225;BME280;17847;31.524;74.366;2023-10-09T10:28:30;98117.16;;;30.89;nan
31225;BME280;17847;31.524;74.366;2023-10-09T10:31:11;98110.94;;;30.89;nan
31225;BME280;17847;31.524;74.366;2023-10-09T10:36:27;98100.91;;;30.93;nan
31225;BME280;17847;31.524;74.366;2023-10-09T10:41:36;98086.06;;;30.94;nan
31225;BME280;17847;31.524;74.366;2023-10-09T10:44:31;98080.72;;;30.97;nan
31225;BME280;17847;31.524;74.366;2023-10-09T10:47:11;98086.19;;;30.97;nan
31225;BME280;17847;31.524;74.366;2023-10-09T10:50:04;98078.53;;;30.91;nan
31225;BME280;17847;31.524;74.366;2023-10-09T10:53:12;98078.75;;;30.86;nan
31225;BME280;17847;31.524;74.366;2023-10-09T10:55:58;98082.88;;;30.80;nan
31225;BME280;17847;31.524;74.366;2023-10-09T10:58:53;98079.78;;;30.69;nan
31225;BME280;17847;31.524;74.366;2023-10-09T11:01:43;98074.50;;;30.52;nan
31225;BME280;17847;31.524;74.366;2023-10-09T11:04:31;98077.75;;;30.45;nan
31225;BME280;17847;31.524;74.366;2023-10-09T11:07:03;98068.97;;;30.40;nan
31225;BME280;17847;31.524;74.366;2023-10-09T11:09:55;98076.78;;;30.29;nan
31225;BME280;17847;31.524;74.366;2023-10-09T11:15:15;98069.38;;;30.29;nan
31225;BME280;17847;31.524;74.366;2023-10-09T11:20:50;98089.00;;;30.31;nan
31225;BME280;17847;31.524;74.366;2023-10-09T11:23:29;98079.84;;;30.27;nan
31225;BME280;17847;31.524;74.366;2023-10-09T11:26:19;98092.59;;;30.23;nan
31225;BME280;17847;31.524;74.366;2023-10-09T11:29:12;98088.47;;;30.17;nan
31225;BME280;17847;31.524;74.366;2023-10-09T11:32:05;98088.81;;;30.16;nan
31225;BME280;17847;31.524;74.366;2023-10-09T11:34:37;98103.47;;;30.11;nan
31225;BME280;17847;31.524;74.366;2023-10-09T11:37:12;98105.41;;;30.11;nan
31225;BME280;17847;31.524;74.366;2023-10-09T11:39:44;98101.75;;;30.07;nan
31225;BME280;17847;31.524;74.366;2023-10-09T11:42:25;98099.31;;;30.05;nan
31225;BME280;17847;31.524;74.366;2023-10-09T11:45:26;98102.41;;;30.04;nan
31225;BME280;17847;31.524;74.366;2023-10-09T11:48:18;98101.63;;;30.03;nan
31225;BME280;17847;31.524;74.366;2023-10-09T11:51:02;98089.09;;;30.02;nan
31225;BME280;17847;31.524;74.366;2023-10-09T11:53:42;98078.97;;;30.03;nan
31225;BME280;17847;31.524;74.366;2023-10-09T11:56:18;98066.78;;;30.00;nan
31225;BME280;17847;31.524;74.366;2023-10-09T11:58:49;98060.16;;;30.01;nan
31225;BME280;17847;31.524;74.366;2023-10-09T12:01:23;98066.31;;;29.98;nan
31225;BME280;17847;31.524;74.366;2023-10-09T12:03:54;98063.25;;;30.00;nan
31225;BME280;17847;31.524;74.366;2023-10-09T12:06:24;98061.66;;;29.99;nan
31225;BME280;17847;31.524;74.366;2023-10-09T12:09:01;98058.44;;;29.97;nan
31225;BME280;17847;31.524;74.366;2023-10-09T12:11:34;98044.34;;;29.95;nan
31225;BME280;17847;31.524;74.366;2023-10-09T12:14:07;98047.88;;;29.95;nan
31225;BME280;17847;31.524;74.366;2023-10-09T12:16:39;98040.59;;;29.99;nan
31225;BME280;17847;31.524;74.366;2023-10-09T12:19:18;98038.78;;;30.03;nan
31225;BME280;17847;31.524;74.366;2023-10-09T12:21:48;98030.41;;;30.08;nan
31225;BME280;17847;31.524;74.366;2023-10-09T12:24:17;98040.50;;;30.08;nan
31225;BME280;17847;31.524;74.366;2023-10-09T12:26:47;98039.03;;;30.10;nan
31225;BME280;17847;31.524;74.366;2023-10-09T12:29:22;98050.63;;;30.07;nan
31225;BME280;17847;31.524;74.366;2023-10-09T12:31:52;98077.94;;;30.07;nan
31225;BME280;17847;31.524;74.366;2023-10-09T12:34:27;98078.75;;;30.08;nan
31225;BME280;17847;31.524;74.366;2023-10-09T12:36:58;98083.53;;;30.11;nan
31225;BME280;17847;31.524;74.366;2023-10-09T12:39:30;98087.06;;;30.11;nan
31225;BME280;17847;31.524;74.366;2023-10-09T12:42:03;98087.56;;;30.13;nan
31225;BME280;17847;31.524;74.366;2023-10-09T12:44:36;98106.41;;;30.06;nan
31225;BME280;17847;31.524;74.366;2023-10-09T12:47:08;98116.72;;;30.01;nan
31225;BME280;17847;31.524;74.366;2023-10-09T12:49:40;98109.81;;;30.03;nan
31225;BME280;17847;31.524;74.366;2023-10-09T12:52:13;98111.59;;;29.99;nan
31225;BME280;17847;31.524;74.366;2023-10-09T12:54:46;98115.94;;;30.00;nan
31225;BME280;17847;31.524;74.366;2023-10-09T12:57:15;98122.78;;;30.06;nan
31225;BME280;17847;31.524;74.366;2023-10-09T12:59:44;98132.84;;;29.94;nan
31225;BME280;17847;31.524;74.366;2023-10-09T13:02:17;98132.03;;;29.93;nan
31225;BME280;17847;31.524;74.366;2023-10-09T13:05:09;98126.94;;;29.83;nan
31225;BME280;17847;31.524;74.366;2023-10-09T13:07:54;98143.66;;;29.90;nan
31225;BME280;17847;31.524;74.366;2023-10-09T13:10:27;98138.44;;;29.97;nan
31225;BME280;17847;31.524;74.366;2023-10-09T13:29:33;98136.38;;;29.94;nan
31225;BME280;17847;31.524;74.366;2023-10-09T13:32:03;98134.31;;;29.91;nan
31225;BME280;17847;31.524;74.366;2023-10-09T13:34:42;98137.50;;;29.93;nan
31225;BME280;17847;31.524;74.366;2023-10-09T13:37:17;98137.63;;;29.97;nan
31225;BME280;17847;31.524;74.366;2023-10-09T13:39:50;98138.81;;;29.87;nan
31225;BME280;17847;31.524;74.366;2023-10-09T13:42:25;98139.59;;;29.96;nan
31225;BME280;17847;31.524;74.366;2023-10-09T13:44:54;98135.72;;;29.97;nan
31225;BME280;17847;31.524;74.366;2023-10-09T13:47:24;98131.44;;;29.87;nan
31225;BME280;17847;31.524;74.366;2023-10-09T13:50:00;98130.91;;;29.94;nan
31225;BME280;17847;31.524;74.366;2023-10-09T13:52:29;98137.38;;;29.89;nan
31225;BME280;17847;31.524;74.366;2023-10-09T13:54:59;98126.69;;;29.76;nan
31225;BME280;17847;31.524;74.366;2023-10-09T13:57:44;98124.75;;;29.76;nan
31225;BME280;17847;31.524;74.366;2023-10-09T14:00:14;98125.88;;;29.75;nan
31225;BME280;17847;31.524;74.366;2023-10-09T14:03:01;98124.63;;;29.73;nan
31225;BME280;17847;31.524;74.366;2023-10-09T14:05:40;98118.75;;;29.62;nan
31225;BME280;17847;31.524;74.366;2023-10-09T14:08:32;98110.03;;;29.69;nan
31225;BME280;17847;31.524;74.366;2023-10-09T14:11:01;98103.47;;;29.61;nan
31225;BME280;17847;31.524;74.366;2023-10-09T14:13:32;98098.03;;;29.61;nan
31225;BME280;17847;31.524;74.366;2023-10-09T14:16:01;98093.38;;;29.62;nan
31225;BME280;17847;31.524;74.366;2023-10-09T14:18:31;98075.94;;;29.54;nan
31225;BME280;17847;31.524;74.366;2023-10-09T14:21:03;98063.16;;;29.46;nan
31225;BME280;17847;31.524;74.366;2023-10-09T14:23:44;98044.84;;;29.47;nan
31225;BME280;17847;31.524;74.366;2023-10-09T14:26:17;98040.50;;;29.45;nan
31225;BME280;17847;31.524;74.366;2023-10-09T14:28:47;98031.25;;;29.38;nan
31225;BME280;17847;31.524;74.366;2023-10-09T14:31:19;98024.22;;;29.28;nan
31225;BME280;17847;31.524;74.366;2023-10-09T14:33:58;98006.41;;;29.31;nan
31225;BME280;17847;31.524;74.366;2023-10-09T14:36:28;98003.06;;;29.34;nan
31225;BME280;17847;31.524;74.366;2023-10-09T14:39:02;97995.19;;;29.32;nan
31225;BME280;17847;31.524;74.366;2023-10-09T14:41:33;97988.44;;;29.30;nan
31225;BME280;17847;31.524;74.366;2023-10-09T14:44:03;97997.31;;;29.18;nan
31225;BME280;17847;31.524;74.366;2023-10-09T14:46:32;98015.31;;;29.19;nan